createdAt,value
2022-10-05T00:00:37.885Z,90.50
2022-10-05T00:01:32.967Z,90.62
2022-10-05T00:02:28.004Z,90.76
2022-10-05T00:03:22.977Z,90.90
2022-10-05T00:04:18.015Z,90.97
2022-10-05T00:05:13.170Z,91.04
2022-10-05T00:06:08.231Z,91.16
2022-10-05T00:07:03.232Z,91.29
2022-10-05T00:07:58.419Z,91.31
2022-10-05T00:08:56.361Z,91.21
2022-10-05T00:09:51.514Z,91.03
2022-10-05T00:10:46.535Z,90.91
2022-10-05T00:11:41.895Z,90.89
2022-10-05T00:12:36.823Z,90.96
2022-10-05T00:13:31.999Z,90.96
2022-10-05T00:14:27.308Z,90.94
2022-10-05T00:15:22.533Z,90.97
2022-10-05T00:16:17.836Z,90.93
2022-10-05T00:17:12.919Z,90.91
2022-10-05T00:18:07.948Z,90.99
2022-10-05T00:19:02.976Z,91.02
2022-10-05T00:19:58.100Z,91.13
2022-10-05T00:20:53.085Z,91.26
2022-10-05T00:21:48.152Z,91.45
2022-10-05T00:22:43.151Z,91.57
2022-10-05T00:23:38.325Z,91.67
2022-10-05T00:24:33.422Z,91.72
2022-10-05T00:25:28.574Z,91.67
2022-10-05T00:26:28.251Z,91.73
2022-10-05T00:27:23.414Z,91.73
2022-10-05T00:28:18.775Z,91.78
2022-10-05T00:29:14.442Z,91.92
2022-10-05T00:30:09.626Z,92.11
2022-10-05T00:31:04.811Z,92.24
2022-10-05T00:32:01.316Z,92.28
2022-10-05T00:32:59.626Z,92.24
2022-10-05T00:33:52.360Z,92.28
2022-10-05T00:34:47.652Z,92.28
2022-10-05T00:35:42.734Z,92.34
2022-10-05T00:36:38.595Z,92.42
2022-10-05T00:37:33.843Z,92.48
2022-10-05T00:38:29.578Z,92.60
2022-10-05T00:39:24.724Z,92.67
2022-10-05T00:40:20.032Z,92.69
2022-10-05T00:41:15.889Z,92.77
2022-10-05T00:42:11.120Z,92.72
2022-10-05T00:43:06.239Z,92.73
2022-10-05T00:44:02.722Z,92.75
2022-10-05T00:44:57.865Z,92.80
2022-10-05T00:45:53.774Z,92.86
2022-10-05T00:46:49.143Z,92.85
2022-10-05T00:47:44.397Z,92.90
2022-10-05T00:48:40.116Z,92.99
2022-10-05T00:49:35.294Z,93.08
2022-10-05T00:50:31.348Z,93.18
2022-10-05T00:51:26.437Z,93.30
2022-10-05T00:52:21.611Z,93.39
2022-10-05T00:53:17.531Z,93.65
2022-10-05T00:54:18.058Z,93.67
2022-10-05T00:55:08.980Z,93.59
2022-10-05T00:56:03.098Z,93.56
2022-10-05T00:56:58.988Z,93.52
2022-10-05T00:57:54.140Z,93.51
2022-10-05T00:58:49.486Z,93.61
2022-10-05T00:59:45.689Z,93.70
2022-10-05T01:00:40.881Z,93.73
2022-10-05T01:01:36.826Z,93.70
2022-10-05T01:02:36.573Z,93.68
2022-10-05T01:03:28.588Z,93.76
2022-10-05T01:04:22.873Z,93.85
2022-10-05T01:05:18.729Z,93.88
2022-10-05T01:06:13.906Z,93.88
2022-10-05T01:07:09.093Z,93.93
2022-10-05T01:08:04.928Z,93.91
2022-10-05T01:09:00.113Z,93.84
2022-10-05T01:09:55.976Z,93.74
2022-10-05T01:10:51.046Z,93.66
2022-10-05T01:11:46.255Z,93.62
2022-10-05T01:12:42.108Z,93.60
2022-10-05T01:13:37.302Z,93.55
2022-10-05T01:14:32.637Z,93.52
2022-10-05T01:15:28.936Z,93.46
2022-10-05T01:16:24.344Z,93.43
2022-10-05T01:17:20.090Z,93.45
2022-10-05T01:18:15.230Z,93.36
2022-10-05T01:19:10.546Z,93.30
2022-10-05T01:20:06.217Z,93.27
2022-10-05T01:21:01.391Z,93.26
2022-10-05T01:21:57.260Z,93.24
2022-10-05T01:22:52.434Z,93.27
2022-10-05T01:23:47.743Z,93.24
2022-10-05T01:24:42.932Z,93.14
2022-10-05T01:25:38.109Z,93.08
2022-10-05T01:26:33.878Z,93.01
2022-10-05T01:27:29.212Z,92.98
2022-10-05T01:28:24.557Z,92.85
2022-10-05T01:29:20.142Z,92.82
2022-10-05T01:30:15.416Z,92.77
2022-10-05T01:31:11.182Z,92.79
2022-10-05T01:32:06.386Z,92.84
2022-10-05T01:33:01.730Z,92.87
2022-10-05T01:33:57.346Z,92.88
2022-10-05T01:34:52.504Z,92.90
2022-10-05T01:35:47.701Z,92.90
2022-10-05T01:36:44.397Z,93.07
2022-10-05T01:37:39.397Z,93.03
2022-10-05T01:38:35.154Z,92.95
2022-10-05T01:39:30.325Z,92.68
2022-10-05T01:40:25.522Z,92.58
2022-10-05T01:41:20.671Z,92.39
2022-10-05T01:42:16.003Z,92.26
2022-10-05T01:43:11.116Z,92.28
2022-10-05T01:44:06.202Z,92.18
2022-10-05T01:45:01.343Z,92.12
2022-10-05T01:45:56.583Z,92.03
2022-10-05T01:46:51.526Z,91.93
2022-10-05T01:47:46.597Z,91.90
2022-10-05T01:48:41.768Z,91.79
2022-10-05T01:49:36.579Z,91.86
2022-10-05T01:50:34.562Z,91.91
2022-10-05T01:51:29.694Z,91.91
2022-10-05T01:52:24.724Z,92.01
2022-10-05T01:53:19.760Z,92.12
2022-10-05T01:54:14.793Z,92.13
2022-10-05T01:55:09.913Z,92.09
2022-10-05T01:56:04.902Z,92.03
2022-10-05T01:56:59.953Z,92.04
2022-10-05T01:57:55.134Z,92.07
2022-10-05T01:58:50.214Z,92.13
2022-10-05T01:59:45.290Z,92.07
2022-10-05T02:00:40.332Z,92.12
2022-10-05T02:01:35.551Z,92.17
2022-10-05T02:02:30.610Z,92.24
2022-10-05T02:03:25.508Z,92.34
2022-10-05T02:04:42.705Z,92.43
2022-10-05T02:05:16.662Z,92.50
2022-10-05T02:06:11.615Z,92.45
2022-10-05T02:07:06.762Z,92.51
2022-10-05T02:08:01.923Z,92.47
2022-10-05T02:08:57.291Z,92.47
2022-10-05T02:09:52.303Z,92.55
2022-10-05T02:10:47.483Z,92.53
2022-10-05T02:11:42.704Z,92.46
2022-10-05T02:12:37.886Z,92.49
2022-10-05T02:13:33.214Z,92.54
2022-10-05T02:14:28.406Z,92.60
2022-10-05T02:15:26.822Z,92.62
2022-10-05T02:16:22.037Z,92.64
2022-10-05T02:17:17.221Z,92.68
2022-10-05T02:18:12.382Z,92.74
2022-10-05T02:19:07.742Z,92.84
2022-10-05T02:20:02.994Z,92.91
2022-10-05T02:20:58.057Z,93.12
2022-10-05T02:21:53.076Z,93.16
2022-10-05T02:22:48.140Z,93.21
2022-10-05T02:23:43.175Z,93.19
2022-10-05T02:24:38.337Z,93.16
2022-10-05T02:25:33.200Z,93.26
2022-10-05T02:26:28.228Z,93.13
2022-10-05T02:27:23.274Z,93.06
2022-10-05T02:28:18.378Z,93.06
2022-10-05T02:29:13.363Z,92.98
2022-10-05T02:30:11.660Z,92.89
2022-10-05T02:31:04.557Z,92.82
2022-10-05T02:31:58.615Z,92.77
2022-10-05T02:32:53.677Z,92.57
2022-10-05T02:33:48.708Z,92.43
2022-10-05T02:34:43.775Z,92.31
2022-10-05T02:35:38.817Z,92.33
2022-10-05T02:36:33.850Z,92.27
2022-10-05T02:37:28.890Z,92.19
2022-10-05T02:38:24.131Z,92.16
2022-10-05T02:39:18.925Z,92.22
2022-10-05T02:40:13.950Z,92.16
2022-10-05T02:41:08.947Z,92.14
2022-10-05T02:42:04.010Z,92.10
2022-10-05T02:42:59.313Z,92.08
2022-10-05T02:43:54.347Z,92.14
2022-10-05T02:44:49.476Z,92.14
2022-10-05T02:45:44.863Z,92.04
2022-10-05T02:46:40.594Z,91.96
2022-10-05T02:47:36.084Z,91.88
2022-10-05T02:48:31.371Z,91.81
2022-10-05T02:49:27.617Z,91.64
2022-10-05T02:50:23.025Z,91.52
2022-10-05T02:51:18.644Z,91.56
2022-10-05T02:52:13.812Z,91.45
2022-10-05T02:53:09.282Z,91.33
2022-10-05T02:54:04.831Z,91.22
2022-10-05T02:55:00.091Z,91.26
2022-10-05T02:55:55.922Z,91.20
2022-10-05T02:56:51.078Z,91.14
2022-10-05T02:57:46.426Z,91.10
2022-10-05T02:58:42.036Z,91.11
2022-10-05T02:59:37.155Z,91.04
2022-10-05T03:00:32.321Z,91.00
2022-10-05T03:01:28.803Z,90.87
2022-10-05T03:02:24.049Z,90.82
2022-10-05T03:03:19.783Z,90.84
2022-10-05T03:04:14.927Z,90.83
2022-10-05T03:05:10.114Z,90.88
2022-10-05T03:06:05.950Z,90.84
2022-10-05T03:07:01.135Z,90.84
2022-10-05T03:07:57.039Z,90.86
2022-10-05T03:08:52.148Z,90.85
2022-10-05T03:09:47.486Z,90.81
2022-10-05T03:10:43.279Z,90.97
2022-10-05T03:11:38.527Z,90.88
2022-10-05T03:12:33.656Z,90.89
2022-10-05T03:13:30.065Z,90.89
2022-10-05T03:14:25.227Z,90.96
2022-10-05T03:15:21.099Z,90.98
2022-10-05T03:16:16.366Z,90.84
2022-10-05T03:17:11.584Z,90.60
2022-10-05T03:18:07.315Z,90.53
2022-10-05T03:19:02.534Z,90.41
2022-10-05T03:19:58.507Z,90.35
2022-10-05T03:20:53.517Z,90.37
2022-10-05T03:21:48.697Z,90.53
2022-10-05T03:22:44.540Z,90.74
2022-10-05T03:23:39.733Z,91.04
2022-10-05T03:24:35.000Z,91.18
2022-10-05T03:25:31.300Z,91.27
2022-10-05T03:26:26.479Z,91.21
2022-10-05T03:27:22.289Z,91.18
2022-10-05T03:28:17.562Z,91.13
2022-10-05T03:29:12.871Z,91.09
2022-10-05T03:30:08.655Z,91.18
2022-10-05T03:31:03.882Z,91.19
2022-10-05T03:31:59.668Z,91.22
2022-10-05T03:32:54.960Z,91.27
2022-10-05T03:33:50.140Z,91.25
2022-10-05T03:34:45.891Z,91.44
2022-10-05T03:35:41.025Z,91.47
2022-10-05T03:36:36.136Z,91.38
2022-10-05T03:37:32.635Z,91.08
2022-10-05T03:38:27.866Z,90.79
2022-10-05T03:39:23.556Z,90.70
2022-10-05T03:40:18.758Z,90.52
2022-10-05T03:41:13.956Z,90.41
2022-10-05T03:42:09.695Z,90.22
2022-10-05T03:43:04.921Z,90.26
2022-10-05T03:44:00.773Z,90.42
2022-10-05T03:44:55.889Z,90.50
2022-10-05T03:45:51.314Z,90.50
2022-10-05T03:46:46.696Z,90.55
2022-10-05T03:47:41.631Z,90.43
2022-10-05T03:48:38.438Z,90.21
2022-10-05T03:49:33.653Z,90.14
2022-10-05T03:50:29.479Z,89.94
2022-10-05T03:51:24.603Z,89.90
2022-10-05T03:52:20.065Z,89.84
2022-10-05T03:53:15.685Z,89.94
2022-10-05T03:54:10.859Z,89.96
2022-10-05T03:55:06.829Z,89.81
2022-10-05T03:56:03.338Z,89.62
2022-10-05T03:56:57.301Z,89.54
2022-10-05T03:57:52.943Z,89.45
2022-10-05T03:58:48.160Z,89.57
2022-10-05T03:59:43.383Z,89.63
2022-10-05T04:00:39.769Z,89.65
2022-10-05T04:01:35.042Z,89.76
2022-10-05T04:02:30.920Z,90.00
2022-10-05T04:03:25.952Z,90.09
2022-10-05T04:04:21.115Z,90.09
2022-10-05T04:05:16.274Z,90.02
2022-10-05T04:06:11.646Z,90.00
2022-10-05T04:07:06.694Z,90.05
2022-10-05T04:08:01.931Z,90.24
2022-10-05T04:08:57.747Z,90.24
2022-10-05T04:09:52.964Z,90.23
2022-10-05T04:10:48.253Z,90.29
2022-10-05T04:11:43.850Z,90.35
2022-10-05T04:12:39.012Z,90.50
2022-10-05T04:13:34.174Z,90.68
2022-10-05T04:14:29.471Z,90.80
2022-10-05T04:15:24.502Z,91.02
2022-10-05T04:16:19.640Z,91.08
2022-10-05T04:17:14.543Z,91.22
2022-10-05T04:18:09.570Z,91.24
2022-10-05T04:19:04.680Z,91.23
2022-10-05T04:19:59.683Z,91.17
2022-10-05T04:20:54.760Z,91.11
2022-10-05T04:21:49.978Z,90.85
2022-10-05T04:22:45.025Z,90.94
2022-10-05T04:23:40.152Z,90.76
2022-10-05T04:24:35.135Z,90.65
2022-10-05T04:25:30.201Z,90.67
2022-10-05T04:26:25.357Z,90.76
2022-10-05T04:27:20.386Z,90.71
2022-10-05T04:28:15.661Z,90.77
2022-10-05T04:29:11.349Z,90.67
2022-10-05T04:30:05.573Z,90.67
2022-10-05T04:31:00.646Z,90.75
2022-10-05T04:31:55.640Z,90.69
2022-10-05T04:32:50.709Z,90.66
2022-10-05T04:35:11.170Z,91.75
2022-10-05T04:36:04.457Z,91.79
2022-10-05T04:37:00.484Z,91.88
2022-10-05T04:37:55.171Z,92.00
2022-10-05T04:38:50.188Z,92.10
2022-10-05T04:39:45.490Z,92.37
2022-10-05T04:40:40.751Z,92.51
2022-10-05T04:41:35.922Z,92.81
2022-10-05T04:42:31.218Z,93.25
2022-10-05T04:43:26.249Z,93.66
2022-10-05T04:44:21.658Z,93.96
2022-10-05T04:45:16.857Z,94.21
2022-10-05T04:46:11.994Z,94.43
2022-10-05T04:47:07.141Z,94.63
2022-10-05T04:48:02.330Z,94.84
2022-10-05T04:48:57.469Z,95.03
2022-10-05T04:49:52.635Z,95.17
2022-10-05T04:50:47.807Z,95.26
2022-10-05T04:51:44.210Z,95.42
2022-10-05T04:52:38.342Z,95.59
2022-10-05T04:53:33.667Z,95.71
2022-10-05T04:54:28.875Z,95.82
2022-10-05T04:55:24.204Z,95.91
2022-10-05T04:56:19.306Z,95.96
2022-10-05T04:57:14.501Z,96.05
2022-10-05T04:58:09.721Z,96.13
2022-10-05T04:59:04.892Z,96.15
2022-10-05T05:00:00.038Z,96.26
2022-10-05T05:00:55.354Z,96.34
2022-10-05T05:01:50.522Z,96.43
2022-10-05T05:02:45.739Z,96.49
2022-10-05T05:03:40.999Z,96.47
2022-10-05T05:04:36.189Z,96.56
2022-10-05T05:05:31.554Z,96.61
2022-10-05T05:06:26.700Z,96.68
2022-10-05T05:07:21.931Z,96.74
2022-10-05T05:08:17.267Z,96.76
2022-10-05T05:09:12.539Z,96.76
2022-10-05T05:10:07.751Z,96.82
2022-10-05T05:11:02.994Z,96.90
2022-10-05T05:11:58.244Z,96.88
2022-10-05T05:12:53.500Z,96.83
2022-10-05T05:13:48.761Z,96.80
2022-10-05T05:14:44.001Z,96.77
2022-10-05T05:15:39.443Z,96.73
2022-10-05T05:16:34.646Z,96.69
2022-10-05T05:17:29.920Z,96.69
2022-10-05T05:18:25.204Z,96.74
2022-10-05T05:19:20.452Z,96.81
2022-10-05T05:20:15.761Z,96.86
2022-10-05T05:21:11.090Z,96.85
2022-10-05T05:22:06.393Z,96.83
2022-10-05T05:23:01.729Z,96.85
2022-10-05T05:23:57.059Z,96.88
2022-10-05T05:24:52.397Z,96.90
2022-10-05T05:25:48.011Z,96.95
2022-10-05T05:26:43.119Z,96.97
2022-10-05T05:27:38.456Z,96.98
2022-10-05T05:28:33.998Z,96.97
2022-10-05T05:29:29.302Z,97.00
2022-10-05T05:30:24.649Z,96.98
2022-10-05T05:31:20.088Z,96.99
2022-10-05T05:32:15.286Z,96.92
2022-10-05T05:33:10.660Z,96.81
2022-10-05T05:34:06.028Z,96.72
2022-10-05T05:35:01.370Z,96.70
2022-10-05T05:35:56.850Z,96.55
2022-10-05T05:36:52.082Z,96.37
2022-10-05T05:37:47.548Z,96.24
2022-10-05T05:38:42.787Z,96.20
2022-10-05T05:39:37.883Z,96.16
2022-10-05T05:40:33.004Z,96.10
2022-10-05T05:41:28.125Z,96.05
2022-10-05T05:42:23.238Z,96.08
2022-10-05T05:43:18.303Z,96.11
2022-10-05T05:44:13.396Z,96.14
2022-10-05T05:45:08.476Z,96.16
2022-10-05T05:46:03.631Z,96.15
2022-10-05T05:47:03.893Z,96.15
2022-10-05T05:47:54.583Z,96.16
2022-10-05T05:48:49.289Z,96.13
2022-10-05T05:49:44.721Z,96.08
2022-10-05T05:50:40.044Z,95.94
2022-10-05T05:51:35.455Z,95.86
2022-10-05T05:52:30.839Z,95.82
2022-10-05T05:53:26.409Z,95.73
2022-10-05T05:54:21.834Z,95.64
2022-10-05T05:55:17.115Z,95.74
2022-10-05T05:56:12.529Z,95.85
2022-10-05T05:57:07.937Z,95.93
2022-10-05T05:58:03.371Z,95.99
2022-10-05T05:58:58.846Z,96.12
2022-10-05T05:59:54.441Z,96.27
2022-10-05T06:00:49.704Z,96.35
2022-10-05T06:01:45.374Z,96.41
2022-10-05T06:02:40.557Z,96.47
2022-10-05T06:03:35.467Z,96.41
2022-10-05T06:04:30.506Z,96.42
2022-10-05T06:05:25.543Z,96.53
2022-10-05T06:06:20.588Z,96.57
2022-10-05T06:07:15.584Z,96.60
2022-10-05T06:08:10.583Z,96.64
2022-10-05T06:09:05.572Z,96.68
2022-10-05T06:10:00.720Z,96.73
2022-10-05T06:10:55.670Z,96.75
2022-10-05T06:11:52.189Z,96.71
2022-10-05T06:12:47.362Z,96.69
2022-10-05T06:13:42.496Z,96.72
2022-10-05T06:14:37.609Z,96.75
2022-10-05T06:15:32.632Z,96.74
2022-10-05T06:16:27.750Z,96.77
2022-10-05T06:17:22.829Z,96.79
2022-10-05T06:18:17.900Z,96.87
2022-10-05T06:19:13.294Z,96.90
2022-10-05T06:20:08.721Z,96.71
2022-10-05T06:21:04.237Z,96.29
2022-10-05T06:21:59.650Z,95.93
2022-10-05T06:22:55.087Z,95.33
2022-10-05T06:23:50.528Z,94.77
2022-10-05T06:24:46.018Z,94.23
2022-10-05T06:25:41.501Z,93.56
2022-10-05T06:26:37.083Z,93.20
2022-10-05T06:27:32.382Z,92.90
2022-10-05T06:28:27.894Z,92.44
2022-10-05T06:29:23.254Z,92.27
2022-10-05T06:30:18.673Z,92.00
2022-10-05T06:31:14.104Z,91.94
2022-10-05T06:32:09.546Z,91.52
2022-10-05T06:33:04.877Z,91.23
2022-10-05T06:34:00.271Z,90.87
2022-10-05T06:34:59.730Z,90.16
2022-10-05T06:35:55.011Z,89.51
2022-10-05T06:36:50.469Z,89.18
2022-10-05T06:37:45.734Z,89.10
2022-10-05T06:38:41.254Z,88.32
2022-10-05T06:39:36.683Z,88.11
2022-10-05T06:40:31.980Z,88.17
2022-10-05T06:41:27.489Z,88.31
2022-10-05T06:42:22.873Z,87.94
2022-10-05T06:43:18.226Z,88.25
2022-10-05T06:44:13.587Z,88.40
2022-10-05T06:45:08.237Z,88.61
2022-10-05T06:46:03.514Z,87.72
2022-10-05T06:46:58.510Z,88.16
2022-10-05T06:47:53.533Z,87.90
2022-10-05T06:48:48.682Z,87.47
2022-10-05T06:49:43.684Z,87.52
2022-10-05T06:50:38.705Z,86.87
2022-10-05T06:51:33.666Z,86.36
2022-10-05T06:52:28.827Z,86.48
2022-10-05T06:53:23.844Z,85.88
2022-10-05T06:54:18.912Z,85.65
2022-10-05T06:55:14.426Z,84.41
2022-10-05T06:56:08.986Z,84.77
2022-10-05T06:57:04.470Z,84.11
2022-10-05T06:58:03.956Z,83.68
2022-10-05T06:58:59.416Z,84.28
2022-10-05T06:59:54.852Z,85.16
2022-10-05T07:00:50.290Z,85.61
2022-10-05T07:01:46.022Z,86.52
2022-10-05T07:02:41.384Z,87.00
2022-10-05T07:03:36.492Z,87.43
2022-10-05T07:04:36.599Z,87.92
2022-10-05T07:05:28.700Z,88.67
2022-10-05T07:06:23.143Z,89.04
2022-10-05T07:07:18.608Z,89.21
2022-10-05T07:08:14.085Z,89.65
2022-10-05T07:09:09.570Z,89.42
2022-10-05T07:10:05.088Z,89.34
2022-10-05T07:11:00.454Z,89.30
2022-10-05T07:11:59.596Z,89.05
2022-10-05T07:12:51.552Z,89.16
2022-10-05T07:13:45.550Z,88.88
2022-10-05T07:14:40.604Z,88.40
2022-10-05T07:15:35.792Z,87.91
2022-10-05T07:16:30.875Z,88.10
2022-10-05T07:17:25.852Z,88.14
2022-10-05T07:18:20.908Z,88.11
2022-10-05T07:19:15.931Z,87.58
2022-10-05T07:20:11.006Z,86.96
2022-10-05T07:21:06.070Z,85.46
2022-10-05T07:22:01.116Z,85.79
2022-10-05T07:22:56.122Z,85.97
2022-10-05T07:23:51.182Z,85.41
2022-10-05T07:24:46.232Z,84.77
2022-10-05T07:25:41.351Z,84.21
2022-10-05T07:26:36.460Z,83.66
2022-10-05T07:27:31.569Z,83.72
2022-10-05T07:28:26.841Z,83.50
2022-10-05T07:29:21.933Z,83.34
2022-10-05T07:30:16.982Z,83.69
2022-10-05T07:31:12.490Z,84.22
2022-10-05T07:32:07.788Z,84.40
2022-10-05T07:33:03.330Z,84.74
2022-10-05T07:33:58.808Z,84.74
2022-10-05T07:34:54.285Z,84.31
2022-10-05T07:35:49.796Z,84.51
2022-10-05T07:36:45.983Z,84.60
2022-10-05T07:37:40.763Z,84.36
2022-10-05T07:38:36.280Z,84.16
2022-10-05T07:39:55.384Z,84.24
2022-10-05T07:40:28.354Z,83.68
2022-10-05T07:41:22.837Z,83.04
2022-10-05T07:42:18.513Z,82.30
2022-10-05T07:43:13.902Z,82.11
2022-10-05T07:44:13.174Z,80.98
2022-10-05T07:45:08.207Z,80.62
2022-10-05T07:46:03.820Z,79.75
2022-10-05T07:46:59.276Z,78.83
2022-10-05T07:47:54.595Z,77.97
2022-10-05T07:48:49.863Z,79.17
2022-10-05T07:49:45.283Z,80.62
2022-10-05T07:50:40.687Z,80.56
2022-10-05T07:51:36.364Z,79.51
2022-10-05T07:52:34.619Z,79.20
2022-10-05T07:53:27.065Z,79.26
2022-10-05T07:54:22.574Z,78.85
2022-10-05T07:55:18.079Z,79.78
2022-10-05T07:56:13.759Z,79.56
2022-10-05T07:57:09.224Z,79.52
2022-10-05T07:58:04.190Z,78.44
2022-10-05T07:58:59.225Z,78.91
2022-10-05T07:59:54.319Z,78.65
2022-10-05T08:00:49.342Z,78.88
2022-10-05T08:01:44.371Z,79.44
2022-10-05T08:02:39.430Z,79.54
2022-10-05T08:03:34.405Z,79.53
2022-10-05T08:04:29.640Z,80.07
2022-10-05T08:05:24.646Z,78.90
2022-10-05T08:06:19.746Z,77.77
2022-10-05T08:07:16.655Z,77.96
2022-10-05T08:08:14.258Z,78.47
2022-10-05T08:09:06.909Z,78.05
2022-10-05T08:10:01.894Z,77.00
2022-10-05T08:10:57.717Z,75.34
2022-10-05T08:11:53.196Z,75.11
2022-10-05T08:12:49.012Z,74.18
2022-10-05T08:13:44.233Z,73.28
2022-10-05T08:14:39.711Z,73.73
2022-10-05T08:15:35.377Z,73.80
2022-10-05T08:16:30.762Z,73.98
2022-10-05T08:17:26.495Z,74.25
2022-10-05T08:18:21.796Z,74.89
2022-10-05T08:19:17.171Z,74.75
2022-10-05T08:20:12.700Z,73.68
2022-10-05T08:21:07.740Z,73.12
2022-10-05T08:22:02.711Z,72.45
2022-10-05T08:22:57.681Z,72.48
2022-10-05T08:23:52.760Z,72.73
2022-10-05T08:24:47.875Z,72.52
2022-10-05T08:25:42.867Z,71.07
2022-10-05T08:26:37.871Z,72.07
2022-10-05T08:27:33.173Z,73.12
2022-10-05T08:28:28.118Z,73.57
2022-10-05T08:29:23.299Z,74.88
2022-10-05T08:30:20.325Z,74.85
2022-10-05T08:31:15.333Z,74.26
2022-10-05T08:32:10.423Z,74.00
2022-10-05T08:33:05.459Z,73.25
2022-10-05T08:34:01.680Z,72.94
2022-10-05T08:34:57.074Z,73.95
2022-10-05T08:35:52.512Z,75.51
2022-10-05T08:36:52.928Z,76.53
2022-10-05T08:37:44.938Z,76.58
2022-10-05T08:38:39.629Z,77.01
2022-10-05T08:39:34.959Z,76.79
2022-10-05T08:40:30.400Z,76.49
2022-10-05T08:41:25.932Z,76.14
2022-10-05T08:42:21.375Z,75.99
2022-10-05T08:43:16.819Z,75.40
2022-10-05T08:44:11.840Z,74.88
2022-10-05T08:45:06.840Z,74.27
2022-10-05T08:46:01.988Z,73.90
2022-10-05T08:46:57.046Z,74.28
2022-10-05T08:47:52.082Z,74.60
2022-10-05T08:48:47.095Z,75.18
2022-10-05T08:49:42.142Z,75.11
2022-10-05T08:50:37.201Z,75.80
2022-10-05T08:51:32.249Z,74.73
2022-10-05T08:52:27.306Z,73.20
2022-10-05T08:53:24.053Z,72.43
2022-10-05T08:54:19.526Z,72.68
2022-10-05T08:55:15.117Z,72.70
2022-10-05T08:56:10.308Z,73.11
2022-10-05T08:57:05.870Z,71.95
2022-10-05T08:58:01.322Z,71.94
2022-10-05T08:58:56.876Z,71.66
2022-10-05T08:59:52.425Z,71.97
2022-10-05T09:00:47.771Z,71.71
2022-10-05T09:01:43.291Z,70.96
2022-10-05T09:02:38.718Z,71.32
2022-10-05T09:03:34.649Z,71.86
2022-10-05T09:04:29.797Z,71.02
2022-10-05T09:05:25.466Z,71.50
2022-10-05T09:06:20.950Z,71.32
2022-10-05T09:07:15.992Z,70.74
2022-10-05T09:08:10.968Z,71.24
2022-10-05T09:09:06.054Z,71.29
2022-10-05T09:10:02.077Z,72.30
2022-10-05T09:10:56.416Z,72.03
2022-10-05T09:11:51.272Z,72.49
2022-10-05T09:12:46.277Z,72.44
2022-10-05T09:13:41.430Z,72.47
2022-10-05T09:14:36.486Z,72.04
2022-10-05T09:15:31.647Z,71.71
2022-10-05T09:16:27.677Z,72.28
2022-10-05T09:17:23.124Z,72.36
2022-10-05T09:18:18.705Z,71.95
2022-10-05T09:19:14.211Z,70.51
2022-10-05T09:20:09.731Z,70.41
2022-10-05T09:21:05.255Z,69.97
2022-10-05T09:22:00.553Z,70.18
2022-10-05T09:22:56.008Z,69.91
2022-10-05T09:23:51.436Z,70.11
2022-10-05T09:24:48.631Z,69.54
2022-10-05T09:25:42.322Z,69.51
2022-10-05T09:26:37.870Z,69.22
2022-10-05T09:27:33.303Z,69.89
2022-10-05T09:28:29.067Z,69.82
2022-10-05T09:29:24.276Z,69.21
2022-10-05T09:30:19.353Z,68.84
2022-10-05T09:31:14.435Z,68.62
2022-10-05T09:32:13.030Z,69.18
2022-10-05T09:33:05.363Z,69.47
2022-10-05T09:33:59.473Z,69.86
2022-10-05T09:34:54.712Z,69.76
2022-10-05T09:35:49.714Z,69.87
2022-10-05T09:36:44.725Z,70.06
2022-10-05T09:37:43.778Z,70.18
2022-10-05T09:38:38.779Z,70.75
2022-10-05T09:39:33.835Z,70.42
2022-10-05T09:40:28.902Z,69.66
2022-10-05T09:41:23.909Z,68.54
2022-10-05T09:42:18.990Z,68.37
2022-10-05T09:43:13.947Z,68.32
2022-10-05T09:44:09.202Z,68.92
2022-10-05T09:45:04.100Z,68.47
2022-10-05T09:45:59.611Z,67.19
2022-10-05T09:46:55.774Z,66.56
2022-10-05T09:47:51.345Z,66.17
2022-10-05T09:48:47.175Z,65.84
2022-10-05T09:49:42.832Z,65.45
2022-10-05T09:50:38.340Z,64.75
2022-10-05T09:51:33.990Z,65.13
2022-10-05T09:52:29.543Z,65.75
2022-10-05T09:53:25.376Z,65.94
2022-10-05T09:54:20.789Z,65.08
2022-10-05T09:55:16.284Z,63.82
2022-10-05T09:56:12.028Z,63.37
2022-10-05T09:57:07.673Z,63.57
2022-10-05T09:58:03.089Z,63.21
2022-10-05T09:58:59.499Z,61.91
2022-10-05T09:59:55.148Z,61.50
2022-10-05T10:00:58.804Z,60.98
2022-10-05T10:01:47.721Z,60.62
2022-10-05T10:02:41.802Z,60.16
2022-10-05T10:03:36.823Z,59.47
2022-10-05T10:04:32.018Z,58.72
2022-10-05T10:05:30.683Z,59.26
2022-10-05T10:06:26.532Z,59.83
2022-10-05T10:07:21.700Z,60.61
2022-10-05T10:08:17.337Z,60.93
2022-10-05T10:09:13.045Z,60.85
2022-10-05T10:10:08.479Z,60.59
2022-10-05T10:11:05.247Z,60.56
2022-10-05T10:12:00.668Z,60.20
2022-10-05T10:12:56.393Z,59.68
2022-10-05T10:13:51.970Z,59.19
2022-10-05T10:14:47.397Z,58.90
2022-10-05T10:15:43.404Z,59.16
2022-10-05T10:16:38.816Z,59.01
2022-10-05T10:17:34.487Z,59.06
2022-10-05T10:18:30.096Z,57.29
2022-10-05T10:19:25.351Z,56.52
2022-10-05T10:20:21.214Z,56.58
2022-10-05T10:21:16.752Z,56.35
2022-10-05T10:22:12.205Z,56.69
2022-10-05T10:23:08.504Z,57.54
2022-10-05T10:24:04.051Z,57.80
2022-10-05T10:24:59.908Z,58.42
2022-10-05T10:25:55.354Z,59.15
2022-10-05T10:26:50.873Z,59.56
2022-10-05T10:27:50.342Z,59.96
2022-10-05T10:28:42.984Z,59.88
2022-10-05T10:29:37.701Z,59.51
2022-10-05T10:30:36.367Z,58.15
2022-10-05T10:31:28.902Z,57.92
2022-10-05T10:32:24.732Z,57.47
2022-10-05T10:33:20.159Z,57.30
2022-10-05T10:34:15.640Z,57.65
2022-10-05T10:35:11.193Z,56.63
2022-10-05T10:36:07.245Z,57.33
2022-10-05T10:37:02.515Z,57.81
2022-10-05T10:37:57.919Z,57.72
2022-10-05T10:38:53.690Z,57.50
2022-10-05T10:39:49.391Z,56.72
2022-10-05T10:40:44.774Z,57.12
2022-10-05T10:41:41.463Z,57.44
2022-10-05T10:42:36.839Z,56.61
2022-10-05T10:43:32.615Z,56.21
2022-10-05T10:44:28.242Z,56.15
2022-10-05T10:45:23.786Z,54.84
2022-10-05T10:46:19.765Z,55.26
2022-10-05T10:47:15.519Z,56.32
2022-10-05T10:48:10.919Z,56.71
2022-10-05T10:49:06.406Z,57.08
2022-10-05T10:50:01.919Z,56.88
2022-10-05T10:50:57.901Z,56.67
2022-10-05T10:51:53.424Z,56.53
2022-10-05T10:52:49.009Z,56.04
2022-10-05T10:53:44.410Z,56.49
2022-10-05T10:54:39.947Z,57.03
2022-10-05T10:55:35.368Z,56.71
2022-10-05T10:56:32.107Z,56.39
2022-10-05T10:57:27.408Z,55.74
2022-10-05T10:58:23.038Z,55.22
2022-10-05T10:59:18.431Z,55.08
2022-10-05T11:00:13.658Z,55.16
2022-10-05T11:01:08.810Z,54.84
2022-10-05T11:02:03.943Z,55.05
2022-10-05T11:02:58.948Z,54.28
2022-10-05T11:03:54.026Z,54.56
2022-10-05T11:04:49.263Z,53.92
2022-10-05T11:05:47.947Z,54.69
2022-10-05T11:06:39.233Z,55.29
2022-10-05T11:07:34.175Z,55.23
2022-10-05T11:08:29.373Z,55.68
2022-10-05T11:09:24.468Z,56.23
2022-10-05T11:10:19.603Z,56.01
2022-10-05T11:11:18.502Z,56.55
2022-10-05T11:12:13.593Z,56.17
2022-10-05T11:13:08.732Z,55.84
2022-10-05T11:14:03.778Z,56.41
2022-10-05T11:14:58.862Z,56.90
2022-10-05T11:15:53.961Z,56.44
2022-10-05T11:16:49.110Z,56.36
2022-10-05T11:17:43.938Z,56.23
2022-10-05T11:18:39.155Z,56.27
2022-10-05T11:19:40.594Z,56.12
2022-10-05T11:20:32.052Z,56.14
2022-10-05T11:21:26.449Z,56.24
2022-10-05T11:22:22.482Z,56.00
2022-10-05T11:23:17.874Z,56.81
2022-10-05T11:24:13.259Z,56.70
2022-10-05T11:25:09.025Z,57.05
2022-10-05T11:26:04.726Z,56.61
2022-10-05T11:27:00.669Z,57.19
2022-10-05T11:27:55.926Z,57.09
2022-10-05T11:28:51.805Z,57.74
2022-10-05T11:29:47.424Z,57.93
2022-10-05T11:30:45.205Z,57.99
2022-10-05T11:31:38.341Z,58.35
2022-10-05T11:32:33.819Z,58.00
2022-10-05T11:33:29.586Z,57.20
2022-10-05T11:34:24.983Z,57.19
2022-10-05T11:35:20.533Z,57.31
2022-10-05T11:36:16.900Z,56.73
2022-10-05T11:37:12.418Z,56.78
2022-10-05T11:38:08.235Z,57.01
2022-10-05T11:39:03.908Z,56.76
2022-10-05T11:39:59.479Z,55.98
2022-10-05T11:40:55.239Z,56.17
2022-10-05T11:41:51.143Z,56.51
2022-10-05T11:42:46.582Z,57.31
2022-10-05T11:43:42.118Z,57.58
2022-10-05T11:44:37.675Z,57.61
2022-10-05T11:45:33.412Z,57.17
2022-10-05T11:46:28.987Z,56.80
2022-10-05T11:47:24.620Z,56.57
2022-10-05T11:48:20.806Z,56.35
2022-10-05T11:49:16.380Z,56.30
2022-10-05T11:50:12.106Z,55.97
2022-10-05T11:51:07.520Z,55.07
2022-10-05T11:52:03.029Z,55.90
2022-10-05T11:52:58.734Z,56.68
2022-10-05T11:53:54.309Z,57.12
2022-10-05T11:55:09.869Z,56.83